createdAt,value
2022-10-10T00:01:33.823Z,2.58
2022-10-10T00:04:05.978Z,2.17
2022-10-10T00:06:34.598Z,2.20
2022-10-10T00:09:05.331Z,2.53
2022-10-10T00:11:34.679Z,2.40
2022-10-10T00:14:03.038Z,2.38
2022-10-10T00:16:32.083Z,1.95
2022-10-10T00:19:00.425Z,2.20
2022-10-10T00:21:31.145Z,2.05
2022-10-10T00:24:01.072Z,2.35
2022-10-10T00:26:30.036Z,2.10
2022-10-10T00:28:58.462Z,2.28
2022-10-10T00:31:27.716Z,2.10
2022-10-10T00:33:56.038Z,2.28
2022-10-10T00:36:25.108Z,1.95
2022-10-10T00:38:54.949Z,2.05
2022-10-10T00:41:24.566Z,1.92
2022-10-10T00:44:08.769Z,1.80
2022-10-10T00:46:37.896Z,2.40
2022-10-10T00:49:13.268Z,1.90
2022-10-10T00:51:43.221Z,2.35
2022-10-10T00:54:17.294Z,2.00
2022-10-10T00:56:49.870Z,2.13
2022-10-10T00:59:21.361Z,2.13
2022-10-10T01:01:50.131Z,2.17
2022-10-10T01:04:35.267Z,2.00
2022-10-10T01:07:08.262Z,2.40
2022-10-10T01:09:41.940Z,2.40
2022-10-10T01:12:21.645Z,2.28
2022-10-10T01:15:01.523Z,1.92
2022-10-10T01:17:34.311Z,2.10
2022-10-10T01:20:28.036Z,2.40
2022-10-10T01:23:13.562Z,1.90
2022-10-10T01:25:58.751Z,1.92
2022-10-10T01:28:39.349Z,2.20
2022-10-10T01:31:11.546Z,2.20
2022-10-10T01:33:50.521Z,2.40
2022-10-10T01:36:24.428Z,2.15
2022-10-10T01:39:00.166Z,2.00
2022-10-10T01:41:35.443Z,2.53
2022-10-10T01:44:05.899Z,2.17
2022-10-10T01:46:35.266Z,2.25
2022-10-10T01:49:04.505Z,2.05
2022-10-10T01:51:49.470Z,2.15
2022-10-10T01:54:33.321Z,1.95
2022-10-10T01:57:15.179Z,2.20
2022-10-10T02:00:04.431Z,2.00
2022-10-10T02:02:42.947Z,2.13
2022-10-10T02:05:19.211Z,2.20
2022-10-10T02:07:51.939Z,2.20
2022-10-10T02:10:25.076Z,3.03
2022-10-10T02:12:55.541Z,2.03
2022-10-10T02:15:29.983Z,2.42
2022-10-10T02:17:58.922Z,2.30
2022-10-10T02:20:31.075Z,2.53
2022-10-10T02:23:00.132Z,2.80
2022-10-10T02:25:30.976Z,2.55
2022-10-10T02:28:09.973Z,1.83
2022-10-10T02:30:45.118Z,2.08
2022-10-10T02:33:16.981Z,2.05
2022-10-10T02:35:49.405Z,1.92
2022-10-10T02:38:19.794Z,1.95
2022-10-10T02:40:50.168Z,2.17
2022-10-10T02:43:20.126Z,2.08
2022-10-10T02:45:50.126Z,1.90
2022-10-10T02:48:18.722Z,2.30
2022-10-10T02:50:47.195Z,1.70
2022-10-10T02:53:15.669Z,2.30
2022-10-10T02:55:44.056Z,2.60
2022-10-10T02:58:13.296Z,2.03
2022-10-10T03:00:42.171Z,2.30
2022-10-10T03:03:11.934Z,2.30
2022-10-10T03:05:40.758Z,3.10
2022-10-10T03:08:11.819Z,2.58
2022-10-10T03:10:41.776Z,2.47
2022-10-10T03:13:10.130Z,2.30
2022-10-10T03:15:39.129Z,2.70
2022-10-10T03:18:07.921Z,2.47
2022-10-10T03:20:37.667Z,2.08
2022-10-10T03:23:06.625Z,2.38
2022-10-10T03:25:35.866Z,2.67
2022-10-10T03:28:04.981Z,2.25
2022-10-10T03:30:34.171Z,2.73
2022-10-10T03:33:02.537Z,3.13
2022-10-10T03:35:31.387Z,2.72
2022-10-10T03:38:01.482Z,3.03
2022-10-10T03:40:31.558Z,2.40
2022-10-10T03:42:59.950Z,2.20
2022-10-10T03:45:29.047Z,2.63
2022-10-10T03:47:57.781Z,2.83
2022-10-10T03:50:26.595Z,2.65
2022-10-10T03:52:55.046Z,3.00
2022-10-10T03:55:25.591Z,2.80
2022-10-10T03:57:54.201Z,3.63
2022-10-10T04:00:22.550Z,4.45
2022-10-10T04:02:51.931Z,3.20
2022-10-10T04:05:20.913Z,2.47
2022-10-10T04:07:49.471Z,2.97
2022-10-10T04:10:18.599Z,2.33
2022-10-10T04:12:49.094Z,2.22
2022-10-10T04:15:18.178Z,2.78
2022-10-10T04:17:46.678Z,2.78
2022-10-10T04:20:15.847Z,2.72
2022-10-10T04:22:44.182Z,2.47
2022-10-10T04:25:13.208Z,2.90
2022-10-10T04:27:41.724Z,7.23
2022-10-10T04:30:13.620Z,12.93
2022-10-10T04:32:42.061Z,6.27
2022-10-10T04:35:11.523Z,6.18
2022-10-10T04:37:40.105Z,4.50
2022-10-10T04:40:10.430Z,4.60
2022-10-10T04:42:39.208Z,5.82
2022-10-10T04:45:08.938Z,7.00
2022-10-10T04:47:39.125Z,6.60
2022-10-10T04:50:08.393Z,5.65
2022-10-10T04:52:36.862Z,4.80
2022-10-10T04:55:06.704Z,5.20
2022-10-10T04:57:35.172Z,4.30
2022-10-10T05:00:05.338Z,5.25
2022-10-10T05:02:33.975Z,4.57
2022-10-10T05:05:04.349Z,4.30
2022-10-10T05:07:33.126Z,5.07
2022-10-10T05:10:01.519Z,4.00
2022-10-10T05:12:30.337Z,4.88
2022-10-10T05:14:58.819Z,4.70
2022-10-10T05:17:27.175Z,4.57
2022-10-10T05:19:55.984Z,5.80
2022-10-10T05:22:26.175Z,4.82
2022-10-10T05:24:54.525Z,5.45
2022-10-10T05:27:23.386Z,5.60
2022-10-10T05:29:51.717Z,4.65
2022-10-10T05:32:20.211Z,6.10
2022-10-10T05:34:49.159Z,6.43
2022-10-10T05:37:18.047Z,6.28
2022-10-10T05:39:53.735Z,7.65
2022-10-10T05:42:23.448Z,8.80
2022-10-10T05:44:52.395Z,7.23
2022-10-10T05:47:25.406Z,10.80
2022-10-10T05:49:56.003Z,8.48
2022-10-10T05:52:25.223Z,11.20
2022-10-10T05:54:55.117Z,9.07
2022-10-10T05:57:23.840Z,11.67
2022-10-10T05:59:52.681Z,7.47
2022-10-10T06:02:21.212Z,12.35
2022-10-10T06:04:50.045Z,12.27
2022-10-10T06:07:18.410Z,10.80
2022-10-10T06:09:47.495Z,10.40
2022-10-10T06:12:17.637Z,13.10
2022-10-10T06:14:46.518Z,12.30
2022-10-10T06:17:15.677Z,10.93
2022-10-10T06:19:44.172Z,13.48
2022-10-10T06:22:12.504Z,10.70
2022-10-10T06:24:41.278Z,16.50
2022-10-10T06:27:09.812Z,16.67
2022-10-10T06:29:40.126Z,15.13
2022-10-10T06:32:08.540Z,16.77
2022-10-10T06:34:37.754Z,15.50
2022-10-10T06:37:06.655Z,17.20
2022-10-10T06:39:35.275Z,14.50
2022-10-10T06:42:04.143Z,14.68
2022-10-10T06:44:33.185Z,17.58
2022-10-10T06:47:02.976Z,19.08
2022-10-10T06:49:32.254Z,19.42
2022-10-10T06:52:00.669Z,28.30
2022-10-10T06:54:29.141Z,19.20
2022-10-10T06:56:57.536Z,20.17
2022-10-10T06:59:26.934Z,18.27
2022-10-10T07:01:55.749Z,21.27
2022-10-10T07:04:26.030Z,21.13
2022-10-10T07:06:54.971Z,15.35
2022-10-10T07:09:23.400Z,20.90
2022-10-10T07:11:52.663Z,16.42
2022-10-10T07:14:21.019Z,14.82
2022-10-10T07:16:50.166Z,13.65
2022-10-10T07:19:19.086Z,17.70
2022-10-10T07:21:48.927Z,14.30
2022-10-10T07:24:17.678Z,14.27
2022-10-10T07:26:46.979Z,12.45
2022-10-10T07:29:15.927Z,13.00
2022-10-10T07:31:44.967Z,14.02
2022-10-10T07:34:13.834Z,14.65
2022-10-10T07:36:42.215Z,15.80
2022-10-10T07:39:16.926Z,14.75
2022-10-10T07:41:45.997Z,12.63
2022-10-10T07:44:14.966Z,14.00
2022-10-10T07:46:43.835Z,14.63
2022-10-10T07:49:12.441Z,13.40
2022-10-10T07:51:40.884Z,12.70
2022-10-10T07:54:11.187Z,12.88
2022-10-10T07:56:41.314Z,11.60
2022-10-10T07:59:09.752Z,11.75
2022-10-10T08:01:38.283Z,13.10
2022-10-10T08:04:06.733Z,12.20
2022-10-10T08:06:35.238Z,12.95
2022-10-10T08:09:04.924Z,12.35
2022-10-10T08:11:33.304Z,11.82
2022-10-10T08:14:03.700Z,11.93
2022-10-10T08:16:32.109Z,12.15
2022-10-10T08:19:00.949Z,14.15
2022-10-10T08:21:29.503Z,15.77
2022-10-10T08:23:58.257Z,11.73
2022-10-10T08:26:26.621Z,14.60
2022-10-10T08:28:55.446Z,12.75
2022-10-10T08:31:25.169Z,13.57
2022-10-10T08:33:54.616Z,13.05
2022-10-10T08:36:25.072Z,14.63
2022-10-10T08:38:57.449Z,14.00
2022-10-10T08:41:34.110Z,14.32
2022-10-10T08:44:08.282Z,14.90
2022-10-10T08:46:42.079Z,12.48
2022-10-10T08:49:22.178Z,14.15
2022-10-10T08:51:58.032Z,12.68
2022-10-10T08:54:29.717Z,13.07
2022-10-10T08:57:03.102Z,12.10
2022-10-10T08:59:36.513Z,13.93
2022-10-10T09:02:43.613Z,13.63
2022-10-10T09:05:19.801Z,13.43
2022-10-10T09:08:13.503Z,19.95
2022-10-10T09:10:52.722Z,13.23
2022-10-10T09:13:32.123Z,14.07
2022-10-10T09:16:03.543Z,14.02
2022-10-10T09:18:47.012Z,11.52
2022-10-10T09:21:19.769Z,13.98
2022-10-10T09:23:52.933Z,13.82
2022-10-10T09:26:26.142Z,13.93
2022-10-10T09:29:02.896Z,13.50
2022-10-10T09:31:36.146Z,13.77
2022-10-10T09:34:13.871Z,13.50
2022-10-10T09:36:42.668Z,13.38
2022-10-10T09:39:22.166Z,16.05
2022-10-10T09:41:56.686Z,13.27
2022-10-10T09:44:25.571Z,12.32
2022-10-10T09:46:55.178Z,11.18
2022-10-10T09:49:25.843Z,12.63
2022-10-10T09:51:54.325Z,11.23
2022-10-10T09:54:25.045Z,11.13
2022-10-10T09:56:57.426Z,11.38
2022-10-10T09:59:40.997Z,10.13
2022-10-10T10:02:18.830Z,10.93
2022-10-10T10:04:50.710Z,11.15
2022-10-10T10:07:22.078Z,11.77
2022-10-10T10:09:52.027Z,11.05
2022-10-10T10:12:25.055Z,10.90
2022-10-10T10:15:00.386Z,11.20
2022-10-10T10:17:29.947Z,10.98
2022-10-10T10:20:00.010Z,10.70
2022-10-10T10:22:34.006Z,10.50
2022-10-10T10:25:33.753Z,9.75
2022-10-10T10:28:22.169Z,9.25
2022-10-10T10:30:54.521Z,10.13
2022-10-10T10:33:39.759Z,9.52
2022-10-10T10:36:23.126Z,8.50
2022-10-10T10:38:58.769Z,9.13
2022-10-10T10:41:36.223Z,9.65
2022-10-10T10:44:23.875Z,8.75
2022-10-10T10:47:06.226Z,8.18
2022-10-10T10:49:38.078Z,9.02
2022-10-10T10:52:31.167Z,10.35
2022-10-10T10:55:15.952Z,10.05
2022-10-10T10:58:37.100Z,8.43
2022-10-10T11:01:23.689Z,7.55
2022-10-10T11:05:20.936Z,7.57
2022-10-10T11:07:18.843Z,7.97
2022-10-10T11:09:55.197Z,8.43
2022-10-10T11:12:35.350Z,8.40
2022-10-10T11:15:10.874Z,7.18
2022-10-10T11:17:45.321Z,7.55
2022-10-10T11:20:24.034Z,7.78
2022-10-10T11:22:57.863Z,6.05
2022-10-10T11:25:33.371Z,6.85
2022-10-10T11:28:08.167Z,6.72
2022-10-10T11:30:42.508Z,6.18
2022-10-10T11:33:17.219Z,7.40
2022-10-10T11:35:50.954Z,6.90
2022-10-10T11:38:24.931Z,6.50
2022-10-10T11:41:00.191Z,6.22
2022-10-10T11:43:42.046Z,6.47
2022-10-10T11:46:20.226Z,5.68
2022-10-10T11:48:56.067Z,6.65
2022-10-10T11:51:36.975Z,6.43
2022-10-10T11:54:12.884Z,6.75
2022-10-10T11:56:46.158Z,7.65
2022-10-10T11:59:22.515Z,7.43
2022-10-10T12:01:55.817Z,6.65
2022-10-10T12:04:25.020Z,6.70
2022-10-10T12:06:59.656Z,7.80
2022-10-10T12:09:34.795Z,9.55
2022-10-10T12:12:09.762Z,7.90
2022-10-10T12:14:42.752Z,8.80
2022-10-10T12:17:20.967Z,8.80
2022-10-10T12:19:51.769Z,8.38
2022-10-10T12:22:26.155Z,8.85
2022-10-10T12:25:21.601Z,7.57
2022-10-10T12:28:23.384Z,8.30
2022-10-10T12:31:28.303Z,8.32
2022-10-10T12:34:02.838Z,8.48
2022-10-10T12:36:57.018Z,7.78
2022-10-10T12:40:02.606Z,7.82
2022-10-10T12:42:33.528Z,8.75
2022-10-10T12:45:03.480Z,8.10
2022-10-10T12:48:04.335Z,8.27
2022-10-10T12:50:37.116Z,8.68
2022-10-10T12:53:08.099Z,8.60
2022-10-10T12:55:43.630Z,8.63
2022-10-10T12:58:26.487Z,8.93
2022-10-10T13:00:59.633Z,8.38
2022-10-10T13:03:34.246Z,9.43
2022-10-10T13:06:09.077Z,8.88
2022-10-10T13:08:41.519Z,9.40
2022-10-10T13:11:12.212Z,9.20
2022-10-10T13:13:41.902Z,8.15
2022-10-10T13:16:15.522Z,10.32
2022-10-10T13:18:53.272Z,8.95
2022-10-10T13:21:24.781Z,8.77
2022-10-10T13:26:48.305Z,8.45
2022-10-10T13:29:25.322Z,8.35
2022-10-10T13:31:59.913Z,8.10
2022-10-10T13:34:32.546Z,7.38
2022-10-10T13:37:04.138Z,5.93
2022-10-10T13:39:35.550Z,6.50
2022-10-10T13:42:05.750Z,5.50
2022-10-10T13:44:49.326Z,6.53
2022-10-10T13:47:53.635Z,8.73
2022-10-10T13:50:28.642Z,8.65
2022-10-10T13:53:24.293Z,9.80
2022-10-10T13:56:03.710Z,9.95
2022-10-10T13:58:34.310Z,10.40
2022-10-10T14:01:04.610Z,10.57
2022-10-10T14:03:35.939Z,10.73
2022-10-10T14:06:04.502Z,10.00
2022-10-10T14:08:34.875Z,10.82
2022-10-10T14:11:07.150Z,10.60
2022-10-10T14:13:39.213Z,10.15
2022-10-10T14:16:13.053Z,9.50
2022-10-10T14:18:42.786Z,9.00
2022-10-10T14:21:11.946Z,9.20
2022-10-10T14:23:41.027Z,10.32
2022-10-10T14:26:15.775Z,10.52
2022-10-10T14:28:44.794Z,10.70
2022-10-10T14:31:14.688Z,11.82
2022-10-10T14:33:44.445Z,10.40
2022-10-10T14:36:14.738Z,11.30
2022-10-10T14:38:43.098Z,9.70
2022-10-10T14:41:14.076Z,10.00
2022-10-10T14:43:45.933Z,10.40
2022-10-10T14:46:19.335Z,10.68
2022-10-10T14:48:49.508Z,10.98
2022-10-10T14:51:33.978Z,10.13
2022-10-10T14:54:12.030Z,11.43
2022-10-10T14:57:07.714Z,10.57
2022-10-10T14:59:47.433Z,11.07
2022-10-10T15:02:20.414Z,11.30
2022-10-10T15:04:50.602Z,10.63
2022-10-10T15:07:19.908Z,11.88
2022-10-10T15:10:30.896Z,13.07
2022-10-10T15:12:40.542Z,12.57
2022-10-10T15:15:10.370Z,12.90
2022-10-10T15:17:39.891Z,12.93
2022-10-10T15:20:12.429Z,11.82
2022-10-10T15:22:41.670Z,11.68
2022-10-10T15:25:10.967Z,12.10
2022-10-10T15:27:39.466Z,11.60
2022-10-10T15:30:09.901Z,11.35
2022-10-10T15:32:42.367Z,10.52
2022-10-10T15:35:15.315Z,10.73
2022-10-10T15:37:44.246Z,10.38
2022-10-10T15:40:15.325Z,10.30
2022-10-10T15:42:44.161Z,9.88
2022-10-10T15:45:12.763Z,10.50
2022-10-10T15:47:46.414Z,10.25
2022-10-10T15:50:18.110Z,10.15
2022-10-10T15:52:48.865Z,8.95
2022-10-10T15:55:17.322Z,8.15
2022-10-10T15:57:45.736Z,7.10
2022-10-10T16:00:15.710Z,7.85
2022-10-10T16:02:44.162Z,7.30
2022-10-10T16:05:12.887Z,6.93
2022-10-10T16:07:47.923Z,7.65
2022-10-10T16:10:17.668Z,7.72
2022-10-10T16:12:46.950Z,8.35
2022-10-10T16:15:15.411Z,8.75
2022-10-10T16:17:44.423Z,8.23
2022-10-10T16:20:14.038Z,8.95
2022-10-10T16:22:44.194Z,9.30
2022-10-10T16:25:27.827Z,8.23
2022-10-10T16:27:56.743Z,7.32
2022-10-10T16:30:25.149Z,8.18
2022-10-10T16:32:54.562Z,9.25
2022-10-10T16:35:23.067Z,9.35
2022-10-10T16:37:53.167Z,9.13
2022-10-10T16:40:21.587Z,9.50
2022-10-10T16:42:50.333Z,10.38
2022-10-10T16:45:18.908Z,9.52
2022-10-10T16:47:47.323Z,9.57
2022-10-10T16:50:16.062Z,8.35
2022-10-10T16:52:44.429Z,8.60
2022-10-10T16:55:14.819Z,8.32
2022-10-10T16:57:43.667Z,9.18
2022-10-10T17:00:13.453Z,7.65
2022-10-10T17:02:42.810Z,7.65
2022-10-10T17:05:11.698Z,8.13
2022-10-10T17:07:40.273Z,7.93
2022-10-10T17:10:10.310Z,7.90
2022-10-10T17:12:40.521Z,8.30
2022-10-10T17:15:09.924Z,8.07
2022-10-10T17:17:39.293Z,8.20
2022-10-10T17:20:08.317Z,7.65
2022-10-10T17:22:37.806Z,9.65
2022-10-10T17:25:07.677Z,12.05
2022-10-10T17:27:36.719Z,14.18
2022-10-10T17:30:10.137Z,11.82
2022-10-10T17:32:41.849Z,8.82
2022-10-10T17:35:11.919Z,8.63
2022-10-10T17:37:40.375Z,8.02
2022-10-10T17:40:10.497Z,8.65
2022-10-10T17:42:38.873Z,8.73
2022-10-10T17:45:10.774Z,8.90
2022-10-10T17:47:39.252Z,9.20
2022-10-10T17:50:08.751Z,10.65
2022-10-10T17:52:38.148Z,9.80
2022-10-10T17:55:07.844Z,10.45
2022-10-10T17:57:36.373Z,9.25
2022-10-10T18:00:05.961Z,9.85
2022-10-10T18:02:36.164Z,9.75
2022-10-10T18:05:04.865Z,9.00
2022-10-10T18:07:34.193Z,9.90
2022-10-10T18:10:02.646Z,10.73
2022-10-10T18:12:31.256Z,9.90
2022-10-10T18:15:00.504Z,10.70
2022-10-10T18:17:29.459Z,9.95
2022-10-10T18:19:59.283Z,9.25
2022-10-10T18:22:27.806Z,10.98
2022-10-10T18:24:56.654Z,12.45
2022-10-10T18:27:27.173Z,18.02
2022-10-10T18:29:55.563Z,15.50
2022-10-10T18:32:25.040Z,12.80
2022-10-10T18:34:53.553Z,16.55
2022-10-10T18:37:23.817Z,11.50
2022-10-10T18:39:52.850Z,16.27
2022-10-10T18:42:21.201Z,13.27
2022-10-10T18:44:50.403Z,12.85
2022-10-10T18:47:21.502Z,10.40
2022-10-10T18:49:50.611Z,11.10
2022-10-10T18:52:19.162Z,8.88
2022-10-10T18:54:50.873Z,8.57
2022-10-10T18:57:19.410Z,9.05
2022-10-10T18:59:48.546Z,8.65
2022-10-10T19:02:17.529Z,7.75
2022-10-10T19:04:48.269Z,6.88
2022-10-10T19:07:16.734Z,9.25
2022-10-10T19:09:46.091Z,8.52
2022-10-10T19:12:15.869Z,8.55
2022-10-10T19:14:45.141Z,8.52
2022-10-10T19:17:14.066Z,12.18
2022-10-10T19:19:42.578Z,13.57
2022-10-10T19:22:11.563Z,11.88
2022-10-10T19:24:39.988Z,12.40
2022-10-10T19:27:08.769Z,14.73
2022-10-10T19:29:38.533Z,13.65
2022-10-10T19:32:07.465Z,14.30
2022-10-10T19:34:38.160Z,13.20
2022-10-10T19:37:06.704Z,14.85
2022-10-10T19:39:35.929Z,11.70
2022-10-10T19:42:04.556Z,13.73
2022-10-10T19:44:33.991Z,10.85
2022-10-10T19:47:03.748Z,19.35
2022-10-10T19:49:33.338Z,13.55
2022-10-10T19:52:01.906Z,11.05
2022-10-10T19:54:30.621Z,12.32
2022-10-10T19:56:59.033Z,15.75
2022-10-10T19:59:27.848Z,13.10
2022-10-10T20:01:56.318Z,12.23
2022-10-10T20:04:26.941Z,12.18
2022-10-10T20:06:55.326Z,12.90
2022-10-10T20:09:26.030Z,10.90
2022-10-10T20:11:54.958Z,9.80
2022-10-10T20:14:23.322Z,12.02
2022-10-10T20:16:52.891Z,10.68
2022-10-10T20:19:21.377Z,11.75
2022-10-10T20:21:51.739Z,12.00
2022-10-10T20:24:21.500Z,13.18
2022-10-10T20:26:49.883Z,11.48
2022-10-10T20:29:19.061Z,12.60
2022-10-10T20:31:47.923Z,10.82
2022-10-10T20:34:16.327Z,10.48
2022-10-10T20:36:45.170Z,10.60
2022-10-10T20:39:15.570Z,9.23
2022-10-10T20:41:44.574Z,12.88
2022-10-10T20:44:14.527Z,8.52
2022-10-10T20:46:46.181Z,8.35
2022-10-10T20:49:19.383Z,9.98
2022-10-10T20:51:50.613Z,8.68
2022-10-10T20:54:22.424Z,8.70
2022-10-10T20:56:50.889Z,7.35
2022-10-10T20:59:21.445Z,9.50
2022-10-10T21:01:49.992Z,9.07
2022-10-10T21:04:18.875Z,11.20
2022-10-10T21:06:47.266Z,9.23
2022-10-10T21:09:17.031Z,12.10
2022-10-10T21:11:50.556Z,10.38
2022-10-10T21:14:19.675Z,10.60
2022-10-10T21:16:50.970Z,8.27
2022-10-10T21:19:19.511Z,6.90
2022-10-10T21:21:48.735Z,6.88
2022-10-10T21:24:17.277Z,5.50
2022-10-10T21:26:49.499Z,4.93
2022-10-10T21:29:18.549Z,7.38
2022-10-10T21:31:47.146Z,7.13
2022-10-10T21:34:18.643Z,7.15
2022-10-10T21:36:48.242Z,7.15
2022-10-10T21:39:16.701Z,6.47
2022-10-10T21:41:45.545Z,7.10
2022-10-10T21:44:15.859Z,7.18
2022-10-10T21:46:45.184Z,6.68
2022-10-10T21:49:15.111Z,6.63
2022-10-10T21:51:46.432Z,6.60
2022-10-10T21:54:16.113Z,6.97
2022-10-10T21:56:44.935Z,6.32
2022-10-10T21:59:13.730Z,5.78
2022-10-10T22:01:44.398Z,5.82
2022-10-10T22:04:13.537Z,6.50
2022-10-10T22:06:42.262Z,6.68
2022-10-10T22:09:11.385Z,6.28
2022-10-10T22:11:40.543Z,6.28
2022-10-10T22:14:09.354Z,5.85
2022-10-10T22:16:38.276Z,6.72
2022-10-10T22:19:08.521Z,6.75
2022-10-10T22:21:36.943Z,5.68
2022-10-10T22:24:08.472Z,6.70
2022-10-10T22:26:37.374Z,6.22
2022-10-10T22:29:06.681Z,6.15
2022-10-10T22:31:37.729Z,6.68
2022-10-10T22:34:08.582Z,5.88
2022-10-10T22:36:37.012Z,5.47
2022-10-10T22:39:06.420Z,6.20
2022-10-10T22:41:34.781Z,5.60
2022-10-10T22:44:03.977Z,6.35
2022-10-10T22:46:32.398Z,5.90
2022-10-10T22:49:01.346Z,6.13
2022-10-10T22:51:31.488Z,5.78
2022-10-10T22:54:00.422Z,5.82
2022-10-10T22:56:28.894Z,5.53
2022-10-10T22:58:57.370Z,7.57
2022-10-10T23:01:27.999Z,6.90
2022-10-10T23:04:00.138Z,5.25
2022-10-10T23:06:29.677Z,5.70
2022-10-10T23:08:59.493Z,5.00
2022-10-10T23:11:28.446Z,5.80
2022-10-10T23:13:57.194Z,5.43
2022-10-10T23:16:25.634Z,5.88
2022-10-10T23:18:54.927Z,6.05
2022-10-10T23:21:23.622Z,5.45
2022-10-10T23:23:53.121Z,6.03
2022-10-10T23:26:23.185Z,5.85
2022-10-10T23:28:52.175Z,6.53
2022-10-10T23:31:21.023Z,5.82
2022-10-10T23:33:49.409Z,5.25
2022-10-10T23:36:18.627Z,6.18
2022-10-10T23:38:47.198Z,5.60
2022-10-10T23:41:16.096Z,6.15
2022-10-10T23:43:45.958Z,6.15
2022-10-10T23:46:15.320Z,6.75
2022-10-10T23:49:04.250Z,6.53
2022-10-10T23:51:32.802Z,7.00
2022-10-10T23:54:01.217Z,6.70
2022-10-10T23:56:29.957Z,7.75
2022-10-10T23:59:00.050Z,7.75
